sensor_id;sensor_type;location;lat;lon;timestamp;pressure;altitude;pressure_sealevel;temperature;humidity
37200;BME280;23096;50.892;16.746;2023-09-19T00:02:19;98611.77;;;19.26;66.73
37200;BME280;23096;50.892;16.746;2023-09-19T00:04:44;98609.45;;;19.25;67.00
37200;BME280;23096;50.892;16.746;2023-09-19T00:07:10;98610.65;;;19.23;67.24
37200;BME280;23096;50.892;16.746;2023-09-19T00:09:35;98611.42;;;19.22;67.19
37200;BME280;23096;50.892;16.746;2023-09-19T00:12:05;98615.20;;;19.22;67.50
37200;BME280;23096;50.892;16.746;2023-09-19T00:14:32;98615.19;;;19.23;67.47
37200;BME280;23096;50.892;16.746;2023-09-19T00:17:03;98611.42;;;19.22;67.51
37200;BME280;23096;50.892;16.746;2023-09-19T00:19:34;98612.21;;;19.23;67.72
37200;BME280;23096;50.892;16.746;2023-09-19T00:22:00;98609.25;;;19.23;67.80
37200;BME280;23096;50.892;16.746;2023-09-19T00:24:26;98608.41;;;19.23;67.82
37200;BME280;23096;50.892;16.746;2023-09-19T00:26:53;98611.97;;;19.24;67.98
37200;BME280;23096;50.892;16.746;2023-09-19T00:29:21;98613.19;;;19.26;67.87
37200;BME280;23096;50.892;16.746;2023-09-19T00:31:47;98613.46;;;19.27;68.09
37200;BME280;23096;50.892;16.746;2023-09-19T00:34:12;98615.39;;;19.27;68.02
37200;BME280;23096;50.892;16.746;2023-09-19T00:36:37;98613.13;;;19.27;68.06
37200;BME280;23096;50.892;16.746;2023-09-19T00:39:08;98615.34;;;19.27;68.25
37200;BME280;23096;50.892;16.746;2023-09-19T00:41:34;98616.27;;;19.29;68.41
37200;BME280;23096;50.892;16.746;2023-09-19T00:44:03;98612.91;;;19.32;68.44
37200;BME280;23096;50.892;16.746;2023-09-19T00:46:32;98613.19;;;19.35;68.65
37200;BME280;23096;50.892;16.746;2023-09-19T00:48:58;98607.05;;;19.38;68.56
37200;BME280;23096;50.892;16.746;2023-09-19T00:51:25;98606.05;;;19.41;68.49
37200;BME280;23096;50.892;16.746;2023-09-19T00:53:52;98608.58;;;19.43;68.51
37200;BME280;23096;50.892;16.746;2023-09-19T00:56:19;98607.57;;;19.47;68.68
37200;BME280;23096;50.892;16.746;2023-09-19T00:58:46;98606.53;;;19.49;68.69
37200;BME280;23096;50.892;16.746;2023-09-19T01:01:13;98609.89;;;19.50;68.55
37200;BME280;23096;50.892;16.746;2023-09-19T01:03:41;98612.94;;;19.51;68.55
37200;BME280;23096;50.892;16.746;2023-09-19T01:06:07;98614.75;;;19.53;68.64
37200;BME280;23096;50.892;16.746;2023-09-19T01:08:34;98610.70;;;19.53;68.60
37200;BME280;23096;50.892;16.746;2023-09-19T01:11:11;98609.16;;;19.53;68.63
37200;BME280;23096;50.892;16.746;2023-09-19T01:16:48;98603.17;;;19.52;68.71
37200;BME280;23096;50.892;16.746;2023-09-19T01:19:53;98602.70;;;19.51;68.71
37200;BME280;23096;50.892;16.746;2023-09-19T01:22:43;98604.77;;;19.51;68.68
37200;BME280;23096;50.892;16.746;2023-09-19T01:25:33;98605.52;;;19.50;68.62
37200;BME280;23096;50.892;16.746;2023-09-19T01:30:57;98600.36;;;19.47;68.73
37200;BME280;23096;50.892;16.746;2023-09-19T01:33:26;98600.98;;;19.46;68.72
37200;BME280;23096;50.892;16.746;2023-09-19T01:35:52;98601.56;;;19.47;68.77
37200;BME280;23096;50.892;16.746;2023-09-19T01:38:19;98596.01;;;19.47;68.71
37200;BME280;23096;50.892;16.746;2023-09-19T01:40:56;98591.78;;;19.46;68.73
37200;BME280;23096;50.892;16.746;2023-09-19T01:43:33;98596.39;;;19.45;68.85
37200;BME280;23096;50.892;16.746;2023-09-19T01:46:15;98597.56;;;19.45;68.75
37200;BME280;23096;50.892;16.746;2023-09-19T01:49:42;98596.63;;;19.46;69.00
37200;BME280;23096;50.892;16.746;2023-09-19T01:52:05;98595.11;;;19.48;69.05
37200;BME280;23096;50.892;16.746;2023-09-19T01:54:51;98593.86;;;19.50;68.98
37200;BME280;23096;50.892;16.746;2023-09-19T01:57:28;98590.16;;;19.51;69.03
37200;BME280;23096;50.892;16.746;2023-09-19T02:00:07;98592.67;;;19.50;69.03
37200;BME280;23096;50.892;16.746;2023-09-19T02:02:42;98590.98;;;19.49;68.95
37200;BME280;23096;50.892;16.746;2023-09-19T02:05:09;98588.96;;;19.49;69.07
37200;BME280;23096;50.892;16.746;2023-09-19T02:07:35;98588.95;;;19.49;69.19
37200;BME280;23096;50.892;16.746;2023-09-19T02:10:04;98595.20;;;19.49;69.29
37200;BME280;23096;50.892;16.746;2023-09-19T02:12:31;98602.93;;;19.50;69.16
37200;BME280;23096;50.892;16.746;2023-09-19T02:15:02;98601.02;;;19.50;69.37
37200;BME280;23096;50.892;16.746;2023-09-19T02:17:28;98594.41;;;19.48;69.22
37200;BME280;23096;50.892;16.746;2023-09-19T02:19:56;98589.88;;;19.43;69.30
37200;BME280;23096;50.892;16.746;2023-09-19T02:22:22;98587.48;;;19.41;69.35
37200;BME280;23096;50.892;16.746;2023-09-19T02:24:48;98591.34;;;19.36;69.29
37200;BME280;23096;50.892;16.746;2023-09-19T02:27:14;98594.74;;;19.34;69.37
37200;BME280;23096;50.892;16.746;2023-09-19T02:29:44;98593.62;;;19.33;69.29
37200;BME280;23096;50.892;16.746;2023-09-19T02:32:10;98594.90;;;19.32;69.60
37200;BME280;23096;50.892;16.746;2023-09-19T02:34:36;98594.54;;;19.31;69.64
37200;BME280;23096;50.892;16.746;2023-09-19T02:37:05;98592.23;;;19.29;69.66
37200;BME280;23096;50.892;16.746;2023-09-19T02:39:32;98585.77;;;19.27;69.55
37200;BME280;23096;50.892;16.746;2023-09-19T02:41:57;98578.17;;;19.26;69.69
37200;BME280;23096;50.892;16.746;2023-09-19T02:44:23;98573.67;;;19.26;69.77
37200;BME280;23096;50.892;16.746;2023-09-19T02:46:50;98574.69;;;19.26;69.93
37200;BME280;23096;50.892;16.746;2023-09-19T02:49:16;98574.77;;;19.25;69.98
37200;BME280;23096;50.892;16.746;2023-09-19T02:51:46;98574.25;;;19.25;70.05
37200;BME280;23096;50.892;16.746;2023-09-19T02:54:12;98570.07;;;19.23;69.95
37200;BME280;23096;50.892;16.746;2023-09-19T02:56:38;98568.96;;;19.22;70.09
37200;BME280;23096;50.892;16.746;2023-09-19T02:59:04;98568.59;;;19.20;70.12
37200;BME280;23096;50.892;16.746;2023-09-19T03:01:30;98570.91;;;19.21;70.21
37200;BME280;23096;50.892;16.746;2023-09-19T03:03:57;98565.02;;;19.23;70.29
37200;BME280;23096;50.892;16.746;2023-09-19T03:06:23;98557.52;;;19.23;70.49
37200;BME280;23096;50.892;16.746;2023-09-19T03:08:49;98558.61;;;19.22;70.37
37200;BME280;23096;50.892;16.746;2023-09-19T03:11:17;98563.54;;;19.22;70.51
37200;BME280;23096;50.892;16.746;2023-09-19T03:13:52;98560.41;;;19.22;70.39
37200;BME280;23096;50.892;16.746;2023-09-19T03:16:19;98563.83;;;19.21;70.56
37200;BME280;23096;50.892;16.746;2023-09-19T03:18:48;98564.46;;;19.19;70.49
37200;BME280;23096;50.892;16.746;2023-09-19T03:21:16;98564.34;;;19.19;70.55
37200;BME280;23096;50.892;16.746;2023-09-19T03:23:42;98567.79;;;19.17;70.67
37200;BME280;23096;50.892;16.746;2023-09-19T03:26:12;98568.27;;;19.13;70.51
37200;BME280;23096;50.892;16.746;2023-09-19T03:28:38;98572.84;;;19.08;70.60
37200;BME280;23096;50.892;16.746;2023-09-19T03:31:05;98572.70;;;19.03;70.69
37200;BME280;23096;50.892;16.746;2023-09-19T03:33:35;98575.38;;;19.00;70.84
37200;BME280;23096;50.892;16.746;2023-09-19T03:36:02;98577.27;;;18.95;70.81
37200;BME280;23096;50.892;16.746;2023-09-19T03:38:33;98575.58;;;18.92;70.99
37200;BME280;23096;50.892;16.746;2023-09-19T03:41:02;98573.23;;;18.91;71.09
37200;BME280;23096;50.892;16.746;2023-09-19T03:43:28;98575.51;;;18.93;71.18
37200;BME280;23096;50.892;16.746;2023-09-19T03:45:54;98572.28;;;18.94;71.29
37200;BME280;23096;50.892;16.746;2023-09-19T03:48:21;98572.39;;;18.95;71.42
37200;BME280;23096;50.892;16.746;2023-09-19T03:50:47;98570.39;;;18.96;71.42
37200;BME280;23096;50.892;16.746;2023-09-19T03:53:13;98572.43;;;18.97;71.51
37200;BME280;23096;50.892;16.746;2023-09-19T03:55:38;98569.98;;;18.95;71.37
37200;BME280;23096;50.892;16.746;2023-09-19T03:58:05;98572.15;;;18.93;71.33
37200;BME280;23096;50.892;16.746;2023-09-19T04:00:34;98579.40;;;18.92;71.51
37200;BME280;23096;50.892;16.746;2023-09-19T04:02:59;98578.64;;;18.91;71.45
37200;BME280;23096;50.892;16.746;2023-09-19T04:05:27;98571.95;;;18.90;71.65
37200;BME280;23096;50.892;16.746;2023-09-19T04:07:53;98565.95;;;18.86;71.54
37200;BME280;23096;50.892;16.746;2023-09-19T04:10:19;98567.78;;;18.85;71.64
37200;BME280;23096;50.892;16.746;2023-09-19T04:12:55;98567.09;;;18.83;71.51
37200;BME280;23096;50.892;16.746;2023-09-19T04:15:22;98564.33;;;18.75;71.66
37200;BME280;23096;50.892;16.746;2023-09-19T04:17:50;98564.91;;;18.67;71.47
37200;BME280;23096;50.892;16.746;2023-09-19T04:20:17;98562.25;;;18.64;71.66
37200;BME280;23096;50.892;16.746;2023-09-19T04:22:43;98562.02;;;18.62;71.84
37200;BME280;23096;50.892;16.746;2023-09-19T04:25:08;98562.66;;;18.63;71.69
37200;BME280;23096;50.892;16.746;2023-09-19T04:27:34;98560.95;;;18.63;71.93
37200;BME280;23096;50.892;16.746;2023-09-19T04:30:00;98569.09;;;18.63;71.83
37200;BME280;23096;50.892;16.746;2023-09-19T04:32:29;98570.77;;;18.61;71.91
37200;BME280;23096;50.892;16.746;2023-09-19T04:34:57;98572.56;;;18.61;71.79
37200;BME280;23096;50.892;16.746;2023-09-19T04:37:26;98574.89;;;18.60;71.72
37200;BME280;23096;50.892;16.746;2023-09-19T04:39:51;98573.86;;;18.60;71.86
37200;BME280;23096;50.892;16.746;2023-09-19T04:42:16;98573.09;;;18.60;71.67
37200;BME280;23096;50.892;16.746;2023-09-19T04:44:43;98573.38;;;18.62;71.68
37200;BME280;23096;50.892;16.746;2023-09-19T04:47:08;98576.44;;;18.62;71.59
37200;BME280;23096;50.892;16.746;2023-09-19T04:49:33;98575.66;;;18.63;71.63
37200;BME280;23096;50.892;16.746;2023-09-19T04:52:00;98577.02;;;18.64;71.36
37200;BME280;23096;50.892;16.746;2023-09-19T04:54:26;98579.32;;;18.64;71.37
37200;BME280;23096;50.892;16.746;2023-09-19T04:56:52;98581.92;;;18.64;71.22
37200;BME280;23096;50.892;16.746;2023-09-19T04:59:18;98579.26;;;18.62;71.25
37200;BME280;23096;50.892;16.746;2023-09-19T05:01:43;98581.95;;;18.63;71.28
37200;BME280;23096;50.892;16.746;2023-09-19T05:04:09;98587.09;;;18.64;71.08
37200;BME280;23096;50.892;16.746;2023-09-19T05:06:34;98593.05;;;18.64;70.91
37200;BME280;23096;50.892;16.746;2023-09-19T05:09:01;98592.02;;;18.63;71.02
37200;BME280;23096;50.892;16.746;2023-09-19T05:11:26;98589.91;;;18.64;70.98
37200;BME280;23096;50.892;16.746;2023-09-19T05:13:52;98593.30;;;18.65;70.71
37200;BME280;23096;50.892;16.746;2023-09-19T05:16:21;98599.87;;;18.63;70.64
37200;BME280;23096;50.892;16.746;2023-09-19T05:18:47;98606.92;;;18.64;70.57
37200;BME280;23096;50.892;16.746;2023-09-19T05:21:12;98607.67;;;18.65;70.51
37200;BME280;23096;50.892;16.746;2023-09-19T05:23:38;98607.71;;;18.67;70.60
37200;BME280;23096;50.892;16.746;2023-09-19T05:26:04;98607.54;;;18.69;70.48
37200;BME280;23096;50.892;16.746;2023-09-19T05:28:30;98618.84;;;18.72;70.51
37200;BME280;23096;50.892;16.746;2023-09-19T05:31:00;98619.17;;;18.74;70.29
37200;BME280;23096;50.892;16.746;2023-09-19T05:33:27;98620.83;;;18.78;70.18
37200;BME280;23096;50.892;16.746;2023-09-19T05:35:53;98621.61;;;18.82;70.15
37200;BME280;23096;50.892;16.746;2023-09-19T05:38:19;98627.54;;;18.86;70.00
37200;BME280;23096;50.892;16.746;2023-09-19T05:40:45;98629.58;;;18.91;70.05
37200;BME280;23096;50.892;16.746;2023-09-19T05:43:11;98632.93;;;18.95;69.94
37200;BME280;23096;50.892;16.746;2023-09-19T05:45:39;98634.67;;;19.00;69.69
37200;BME280;23096;50.892;16.746;2023-09-19T05:48:13;98628.54;;;19.03;69.64
37200;BME280;23096;50.892;16.746;2023-09-19T05:50:41;98625.95;;;19.07;69.61
37200;BME280;23096;50.892;16.746;2023-09-19T05:53:07;98631.73;;;19.11;69.53
37200;BME280;23096;50.892;16.746;2023-09-19T05:55:33;98635.56;;;19.13;69.48
37200;BME280;23096;50.892;16.746;2023-09-19T05:57:58;98638.92;;;19.15;69.28
37200;BME280;23096;50.892;16.746;2023-09-19T06:00:25;98645.55;;;19.15;69.16
37200;BME280;23096;50.892;16.746;2023-09-19T06:02:56;98658.02;;;19.13;68.99
37200;BME280;23096;50.892;16.746;2023-09-19T06:05:23;98659.83;;;19.12;68.96
37200;BME280;23096;50.892;16.746;2023-09-19T06:07:50;98663.34;;;19.12;69.01
37200;BME280;23096;50.892;16.746;2023-09-19T06:10:18;98665.17;;;19.13;68.95
37200;BME280;23096;50.892;16.746;2023-09-19T06:12:43;98666.48;;;19.12;68.83
37200;BME280;23096;50.892;16.746;2023-09-19T06:15:10;98671.64;;;19.11;68.92
37200;BME280;23096;50.892;16.746;2023-09-19T06:17:55;98671.88;;;19.10;68.87
37200;BME280;23096;50.892;16.746;2023-09-19T06:20:22;98671.46;;;19.10;68.76
37200;BME280;23096;50.892;16.746;2023-09-19T06:22:49;98676.52;;;19.08;68.82
37200;BME280;23096;50.892;16.746;2023-09-19T06:25:16;98677.11;;;19.07;68.74
37200;BME280;23096;50.892;16.746;2023-09-19T06:27:49;98679.35;;;19.08;68.62
37200;BME280;23096;50.892;16.746;2023-09-19T06:30:18;98683.98;;;19.08;68.72
37200;BME280;23096;50.892;16.746;2023-09-19T06:32:43;98690.45;;;19.08;68.75
37200;BME280;23096;50.892;16.746;2023-09-19T06:35:10;98696.56;;;19.08;68.62
37200;BME280;23096;50.892;16.746;2023-09-19T06:37:40;98691.83;;;19.11;68.59
37200;BME280;23096;50.892;16.746;2023-09-19T06:40:13;98690.16;;;19.12;68.48
37200;BME280;23096;50.892;16.746;2023-09-19T06:42:46;98695.48;;;19.13;68.44
37200;BME280;23096;50.892;16.746;2023-09-19T06:45:13;98703.69;;;19.14;68.52
37200;BME280;23096;50.892;16.746;2023-09-19T06:47:44;98711.43;;;19.16;68.52
37200;BME280;23096;50.892;16.746;2023-09-19T06:50:11;98716.27;;;19.17;68.37
37200;BME280;23096;50.892;16.746;2023-09-19T06:52:43;98721.08;;;19.18;68.30
37200;BME280;23096;50.892;16.746;2023-09-19T06:55:08;98726.54;;;19.19;68.36
37200;BME280;23096;50.892;16.746;2023-09-19T06:57:37;98727.45;;;19.21;68.41
37200;BME280;23096;50.892;16.746;2023-09-19T07:00:02;98729.33;;;19.23;68.40
37200;BME280;23096;50.892;16.746;2023-09-19T07:02:34;98734.13;;;19.27;68.33
37200;BME280;23096;50.892;16.746;2023-09-19T07:04:59;98734.01;;;19.28;68.30
37200;BME280;23096;50.892;16.746;2023-09-19T07:07:25;98732.13;;;19.30;68.28
37200;BME280;23096;50.892;16.746;2023-09-19T07:09:51;98734.09;;;19.34;68.30
37200;BME280;23096;50.892;16.746;2023-09-19T07:12:18;98740.23;;;19.38;68.39
37200;BME280;23096;50.892;16.746;2023-09-19T07:14:44;98745.86;;;19.42;68.36
37200;BME280;23096;50.892;16.746;2023-09-19T07:17:10;98748.23;;;19.45;68.09
37200;BME280;23096;50.892;16.746;2023-09-19T07:19:36;98748.57;;;19.47;68.03
37200;BME280;23096;50.892;16.746;2023-09-19T07:22:02;98750.19;;;19.49;68.03
37200;BME280;23096;50.892;16.746;2023-09-19T07:24:28;98760.45;;;19.52;68.01
37200;BME280;23096;50.892;16.746;2023-09-19T07:26:54;98760.80;;;19.51;68.09
37200;BME280;23096;50.892;16.746;2023-09-19T07:29:20;98760.52;;;19.51;67.95
37200;BME280;23096;50.892;16.746;2023-09-19T07:31:45;98763.06;;;19.49;67.98
37200;BME280;23096;50.892;16.746;2023-09-19T07:34:11;98765.10;;;19.48;67.95
37200;BME280;23096;50.892;16.746;2023-09-19T07:36:37;98768.70;;;19.46;68.12
37200;BME280;23096;50.892;16.746;2023-09-19T07:39:03;98771.94;;;19.45;67.96
37200;BME280;23096;50.892;16.746;2023-09-19T07:41:32;98773.02;;;19.44;68.08
37200;BME280;23096;50.892;16.746;2023-09-19T07:43:58;98777.02;;;19.42;67.84
37200;BME280;23096;50.892;16.746;2023-09-19T07:46:23;98777.90;;;19.42;68.04
37200;BME280;23096;50.892;16.746;2023-09-19T07:48:51;98781.08;;;19.44;68.02
37200;BME280;23096;50.892;16.746;2023-09-19T07:51:17;98783.35;;;19.46;68.05
37200;BME280;23096;50.892;16.746;2023-09-19T07:53:43;98784.70;;;19.49;68.13
37200;BME280;23096;50.892;16.746;2023-09-19T07:56:09;98790.59;;;19.51;68.24
37200;BME280;23096;50.892;16.746;2023-09-19T07:58:36;98796.10;;;19.52;68.23
37200;BME280;23096;50.892;16.746;2023-09-19T08:01:05;98798.71;;;19.55;68.41
37200;BME280;23096;50.892;16.746;2023-09-19T08:03:32;98800.30;;;19.57;68.40
37200;BME280;23096;50.892;16.746;2023-09-19T08:05:58;98803.75;;;19.57;68.11
37200;BME280;23096;50.892;16.746;2023-09-19T08:08:24;98800.88;;;19.58;68.15
37200;BME280;23096;50.892;16.746;2023-09-19T08:10:54;98802.55;;;19.59;68.34
37200;BME280;23096;50.892;16.746;2023-09-19T08:13:22;98806.45;;;19.60;68.31
37200;BME280;23096;50.892;16.746;2023-09-19T08:15:48;98808.14;;;19.61;68.34
37200;BME280;23096;50.892;16.746;2023-09-19T08:18:14;98810.05;;;19.61;68.16
37200;BME280;23096;50.892;16.746;2023-09-19T08:20:41;98816.47;;;19.62;68.35
37200;BME280;23096;50.892;16.746;2023-09-19T08:23:07;98815.71;;;19.63;68.01
37200;BME280;23096;50.892;16.746;2023-09-19T08:25:34;98815.75;;;19.62;68.06
37200;BME280;23096;50.892;16.746;2023-09-19T08:27:59;98816.54;;;19.61;67.92
37200;BME280;23096;50.892;16.746;2023-09-19T08:30:33;98815.89;;;19.60;68.04
37200;BME280;23096;50.892;16.746;2023-09-19T08:33:00;98819.62;;;19.59;67.91
37200;BME280;23096;50.892;16.746;2023-09-19T08:35:27;98816.32;;;19.59;67.88
37200;BME280;23096;50.892;16.746;2023-09-19T08:37:52;98821.90;;;19.61;67.83
37200;BME280;23096;50.892;16.746;2023-09-19T08:40:18;98822.45;;;19.63;67.87
37200;BME280;23096;50.892;16.746;2023-09-19T08:42:56;98828.23;;;19.65;67.81
37200;BME280;23096;50.892;16.746;2023-09-19T08:45:22;98827.06;;;19.67;67.77
37200;BME280;23096;50.892;16.746;2023-09-19T08:48:27;98832.42;;;19.67;67.62
37200;BME280;23096;50.892;16.746;2023-09-19T08:51:03;98832.86;;;19.68;67.55
37200;BME280;23096;50.892;16.746;2023-09-19T08:53:42;98834.62;;;19.68;67.44
37200;BME280;23096;50.892;16.746;2023-09-19T08:56:16;98839.14;;;19.68;67.40
37200;BME280;23096;50.892;16.746;2023-09-19T08:58:51;98840.77;;;19.69;67.20
37200;BME280;23096;50.892;16.746;2023-09-19T09:01:20;98837.94;;;19.73;67.39
37200;BME280;23096;50.892;16.746;2023-09-19T09:03:56;98838.02;;;19.79;67.25
37200;BME280;23096;50.892;16.746;2023-09-19T09:06:24;98835.29;;;19.85;67.38
37200;BME280;23096;50.892;16.746;2023-09-19T09:08:53;98835.08;;;19.92;67.30
37200;BME280;23096;50.892;16.746;2023-09-19T09:11:20;98838.59;;;19.99;67.35
37200;BME280;23096;50.892;16.746;2023-09-19T09:13:47;98840.36;;;20.05;67.27
37200;BME280;23096;50.892;16.746;2023-09-19T09:16:13;98844.14;;;20.08;67.09
37200;BME280;23096;50.892;16.746;2023-09-19T09:18:42;98845.08;;;20.12;67.14
37200;BME280;23096;50.892;16.746;2023-09-19T09:21:10;98843.39;;;20.18;67.07
37200;BME280;23096;50.892;16.746;2023-09-19T09:23:35;98845.77;;;20.27;66.98
37200;BME280;23096;50.892;16.746;2023-09-19T09:26:01;98849.73;;;20.37;66.82
37200;BME280;23096;50.892;16.746;2023-09-19T09:28:32;98853.19;;;20.42;66.78
37200;BME280;23096;50.892;16.746;2023-09-19T09:30:59;98857.34;;;20.42;66.62
37200;BME280;23096;50.892;16.746;2023-09-19T09:33:25;98856.80;;;20.43;66.64
37200;BME280;23096;50.892;16.746;2023-09-19T09:36:01;98861.55;;;20.44;66.55
37200;BME280;23096;50.892;16.746;2023-09-19T09:38:45;98864.33;;;20.47;66.45
37200;BME280;23096;50.892;16.746;2023-09-19T09:41:12;98871.16;;;20.44;66.37
37200;BME280;23096;50.892;16.746;2023-09-19T09:43:41;98869.55;;;20.42;66.18
37200;BME280;23096;50.892;16.746;2023-09-19T09:46:16;98874.33;;;20.42;66.06
37200;BME280;23096;50.892;16.746;2023-09-19T09:48:59;98877.64;;;20.42;65.92
37200;BME280;23096;50.892;16.746;2023-09-19T09:51:50;98879.15;;;20.40;65.91
37200;BME280;23096;50.892;16.746;2023-09-19T09:54:23;98875.96;;;20.38;65.81
37200;BME280;23096;50.892;16.746;2023-09-19T10:02:09;98884.17;;;20.36;65.76
37200;BME280;23096;50.892;16.746;2023-09-19T10:04:39;98882.56;;;20.37;65.63
37200;BME280;23096;50.892;16.746;2023-09-19T10:07:26;98883.52;;;20.38;65.65
37200;BME280;23096;50.892;16.746;2023-09-19T10:10:01;98888.51;;;20.36;65.65
37200;BME280;23096;50.892;16.746;2023-09-19T10:12:38;98897.95;;;20.34;65.51
37200;BME280;23096;50.892;16.746;2023-09-19T10:15:08;98899.96;;;20.35;65.51
37200;BME280;23096;50.892;16.746;2023-09-19T10:17:36;98904.41;;;20.38;65.50
37200;BME280;23096;50.892;16.746;2023-09-19T10:20:02;98904.67;;;20.46;65.71
37200;BME280;23096;50.892;16.746;2023-09-19T10:22:39;98902.09;;;20.54;65.59
37200;BME280;23096;50.892;16.746;2023-09-19T10:25:07;98901.66;;;20.63;65.56
37200;BME280;23096;50.892;16.746;2023-09-19T10:27:35;98905.96;;;20.68;65.45
37200;BME280;23096;50.892;16.746;2023-09-19T10:30:05;98914.02;;;20.70;65.32
37200;BME280;23096;50.892;16.746;2023-09-19T10:32:34;98913.25;;;20.71;65.20
37200;BME280;23096;50.892;16.746;2023-09-19T10:35:02;98914.41;;;20.74;65.12
37200;BME280;23096;50.892;16.746;2023-09-19T10:37:32;98922.63;;;20.78;64.98
37200;BME280;23096;50.892;16.746;2023-09-19T10:39:58;98923.30;;;20.78;64.86
37200;BME280;23096;50.892;16.746;2023-09-19T10:42:25;98919.89;;;20.77;64.68
37200;BME280;23096;50.892;16.746;2023-09-19T10:44:54;98922.65;;;20.71;64.47
37200;BME280;23096;50.892;16.746;2023-09-19T10:47:25;98918.71;;;20.65;64.25
37200;BME280;23096;50.892;16.746;2023-09-19T10:49:51;98918.64;;;20.62;64.12
37200;BME280;23096;50.892;16.746;2023-09-19T10:52:21;98917.25;;;20.59;63.89
37200;BME280;23096;50.892;16.746;2023-09-19T10:54:50;98915.33;;;20.60;63.74
37200;BME280;23096;50.892;16.746;2023-09-19T10:57:21;98920.92;;;20.66;63.76
37200;BME280;23096;50.892;16.746;2023-09-19T11:00:06;98925.02;;;20.74;63.64
37200;BME280;23096;50.892;16.746;2023-09-19T11:05:41;98920.83;;;20.92;63.20
37200;BME280;23096;50.892;16.746;2023-09-19T11:08:07;98920.74;;;20.95;62.96
37200;BME280;23096;50.892;16.746;2023-09-19T11:13:32;98921.73;;;20.91;62.10
37200;BME280;23096;50.892;16.746;2023-09-19T11:16:04;98924.00;;;20.85;61.70
37200;BME280;23096;50.892;16.746;2023-09-19T11:26:44;98926.40;;;20.83;60.85
37200;BME280;23096;50.892;16.746;2023-09-19T11:31:51;98932.80;;;20.99;60.43
37200;BME280;23096;50.892;16.746;2023-09-19T11:37:02;98932.43;;;21.13;59.96
37200;BME280;23096;50.892;16.746;2023-09-19T11:39:30;98925.67;;;21.18;59.89
37200;BME280;23096;50.892;16.746;2023-09-19T11:41:56;98925.98;;;21.26;59.77
37200;BME280;23096;50.892;16.746;2023-09-19T11:44:32;98925.36;;;21.31;59.67
37200;BME280;23096;50.892;16.746;2023-09-19T11:47:04;98926.05;;;21.33;59.43
37200;BME280;23096;50.892;16.746;2023-09-19T11:49:33;98926.23;;;21.33;59.15
37200;BME280;23096;50.892;16.746;2023-09-19T11:52:00;98924.80;;;21.34;59.00
37200;BME280;23096;50.892;16.746;2023-09-19T11:54:27;98920.91;;;21.36;59.01
37200;BME280;23096;50.892;16.746;2023-09-19T11:56:58;98916.48;;;21.48;59.13
37200;BME280;23096;50.892;16.746;2023-09-19T11:59:29;98915.23;;;21.64;59.04
37200;BME280;23096;50.892;16.746;2023-09-19T12:02:01;98918.33;;;21.81;58.90
37200;BME280;23096;50.892;16.746;2023-09-19T12:04:33;98923.80;;;21.93;58.56
37200;BME280;23096;50.892;16.746;2023-09-19T12:07:13;98921.86;;;22.01;58.29
37200;BME280;23096;50.892;16.746;2023-09-19T12:09:46;98918.94;;;22.11;58.17
37200;BME280;23096;50.892;16.746;2023-09-19T12:12:20;98912.64;;;22.15;57.93
37200;BME280;23096;50.892;16.746;2023-09-19T12:14:50;98913.65;;;22.22;57.69
37200;BME280;23096;50.892;16.746;2023-09-19T12:17:19;98916.69;;;22.27;57.40
37200;BME280;23096;50.892;16.746;2023-09-19T12:19:52;98922.66;;;22.33;57.31
37200;BME280;23096;50.892;16.746;2023-09-19T12:22:17;98927.54;;;22.40;57.04
37200;BME280;23096;50.892;16.746;2023-09-19T12:24:45;98926.80;;;22.46;56.90
37200;BME280;23096;50.892;16.746;2023-09-19T12:27:12;98924.86;;;22.55;56.80
37200;BME280;23096;50.892;16.746;2023-09-19T12:29:46;98922.88;;;22.63;56.70
37200;BME280;23096;50.892;16.746;2023-09-19T12:32:13;98919.16;;;22.70;56.45
37200;BME280;23096;50.892;16.746;2023-09-19T12:34:42;98922.27;;;22.73;56.22
37200;BME280;23096;50.892;16.746;2023-09-19T12:37:14;98923.16;;;22.74;55.98
37200;BME280;23096;50.892;16.746;2023-09-19T12:40:06;98925.98;;;22.76;55.71
37200;BME280;23096;50.892;16.746;2023-09-19T12:42:46;98920.99;;;22.75;55.43
37200;BME280;23096;50.892;16.746;2023-09-19T12:45:12;98917.83;;;22.75;55.24
37200;BME280;23096;50.892;16.746;2023-09-19T12:47:40;98915.98;;;22.76;55.11
37200;BME280;23096;50.892;16.746;2023-09-19T12:50:26;98917.52;;;22.79;54.94
37200;BME280;23096;50.892;16.746;2023-09-19T12:52:55;98916.69;;;22.83;54.77
37200;BME280;23096;50.892;16.746;2023-09-19T12:55:31;98919.27;;;22.87;54.74
37200;BME280;23096;50.892;16.746;2023-09-19T12:58:11;98914.70;;;22.91;54.63
37200;BME280;23096;50.892;16.746;2023-09-19T13:00:39;98914.45;;;22.94;54.43
37200;BME280;23096;50.892;16.746;2023-09-19T13:03:25;98913.23;;;22.98;54.30
37200;BME280;23096;50.892;16.746;2023-09-19T13:05:52;98904.44;;;23.02;54.18
37200;BME280;23096;50.892;16.746;2023-09-19T13:08:24;98899.05;;;23.04;54.12
37200;BME280;23096;50.892;16.746;2023-09-19T13:13:33;98893.41;;;23.14;53.74
37200;BME280;23096;50.892;16.746;2023-09-19T13:15:59;98891.70;;;23.15;53.57
37200;BME280;23096;50.892;16.746;2023-09-19T13:18:27;98894.95;;;23.21;53.53
37200;BME280;23096;50.892;16.746;2023-09-19T13:21:06;98895.73;;;23.27;53.49
37200;BME280;23096;50.892;16.746;2023-09-19T13:23:36;98892.82;;;23.31;53.26
37200;BME280;23096;50.892;16.746;2023-09-19T13:26:02;98888.67;;;23.28;53.03
37200;BME280;23096;50.892;16.746;2023-09-19T13:28:29;98883.88;;;23.29;53.05
37200;BME280;23096;50.892;16.746;2023-09-19T13:30:55;98880.75;;;23.29;52.88
37200;BME280;23096;50.892;16.746;2023-09-19T13:33:20;98883.87;;;23.31;52.75
37200;BME280;23096;50.892;16.746;2023-09-19T13:35:46;98880.42;;;23.32;52.59